Terminal Aerodrome Forecast
Issued by NWS

Home | Current Version | Previous Version | Text Only | Print | Product List | Glossary On
Versions: 1 2 3 4 5 6 7 8 9 10 11 12 13 14
507
FTUS42 KGSP 261740
TAFAND
TAF
KAND 261740Z 2618/2718 VRB06KT P6SM SCT040
      TEMPO 2618/2622 BKN040
     FM262200 18005KT P6SM VCTS BKN050CB
     FM270300 17004KT P6SM BKN200 PROB30 2703/2706 4SM -TSRA BR
      OVC040CB
     FM271000 VRB02KT 4SM BR SCT015 OVC100
     FM271300 VRB02KT P6SM BKN035 OVC120=

USA.gov is the U.S. government's official web portal to all federal, state and local government web resources and services.